Cervantes, Argentina
Current Conditions -  °F | °C
As of 7:00 PM on Tuesday 25 Nov 2014 (Local Time) from SAZN Reporting Station
Clear Clear  
Wind Chill: 81°   Ceiling: Unl
Heat Index: 81°   Visibility: 6mi
Dew Point: 25°   Wind: 7mph
Humidity: 13%   Direction: 230°SW
Pressure: 29.8"   Gusts: NA
Location:  39.06°S, 67.34°W
Report Text: SAZN 252200Z 23006KT CAVOK 27/M04 Q1009
Loading
Personal Weather Stations






























Interactive Weather Map New forecast layout! Learn more

10-Day Weather Forecast

Advertisements
Track Severe Weather on mobile